createdAt,value
2023-03-07T00:16:42.265Z,65.63
2023-03-07T00:21:11.695Z,65.78
2023-03-07T00:25:41.036Z,65.90
2023-03-07T00:30:11.723Z,65.80
2023-03-07T01:00:51.168Z,66.42
2023-03-07T01:05:20.493Z,66.56
2023-03-07T01:09:31.402Z,66.58
2023-03-07T01:13:53.182Z,66.78
2023-03-07T01:44:33.518Z,67.23
2023-03-07T01:49:02.747Z,67.43
2023-03-07T01:53:34.954Z,67.39
2023-03-07T02:01:50.291Z,67.49
2023-03-07T02:06:28.274Z,67.52
2023-03-07T02:28:17.813Z,68.02
2023-03-07T02:32:35.139Z,68.15
2023-03-07T02:36:57.219Z,68.01
2023-03-07T02:41:27.052Z,68.09
2023-03-07T02:45:38.310Z,68.26
2023-03-07T02:49:58.411Z,68.37
2023-03-07T03:12:29.725Z,68.69
2023-03-07T03:16:58.924Z,68.52
2023-03-07T03:21:29.104Z,68.59
2023-03-07T03:44:09.308Z,68.94
2023-03-07T03:48:38.542Z,69.17
2023-03-07T03:53:07.912Z,69.26
2023-03-07T03:57:26.870Z,69.38
2023-03-07T04:01:56.237Z,69.45
2023-03-07T04:06:26.668Z,69.52
2023-03-07T04:10:44.843Z,69.66
2023-03-07T04:41:08.150Z,69.99
2023-03-07T04:45:36.965Z,70.35
2023-03-07T04:50:06.088Z,70.34
2023-03-07T04:54:35.402Z,70.47
2023-03-07T04:59:05.550Z,70.66
2023-03-07T05:03:28.245Z,70.46
2023-03-07T05:25:01.447Z,70.86
2023-03-07T05:29:30.830Z,71.00
2023-03-07T05:34:00.128Z,71.09
2023-03-07T05:38:29.777Z,71.09
2023-03-07T06:25:55.461Z,71.80
2023-03-07T06:30:14.115Z,72.02
2023-03-07T06:34:43.054Z,71.76
2023-03-07T06:38:59.567Z,71.58
2023-03-07T06:43:21.468Z,72.10
2023-03-07T06:47:27.701Z,71.97
2023-03-07T06:51:48.493Z,72.21
2023-03-07T06:55:11.889Z,72.36
2023-03-07T06:59:19.935Z,71.89
2023-03-07T07:03:10.312Z,72.17
2023-03-07T07:29:57.421Z,72.15
2023-03-07T07:34:26.826Z,72.58
2023-03-07T07:38:48.956Z,72.56
2023-03-07T07:43:18.419Z,72.86
2023-03-07T07:47:50.808Z,72.70
2023-03-07T07:52:13.762Z,72.63
2023-03-07T07:56:43.505Z,72.73
2023-03-07T08:22:33.190Z,72.77
2023-03-07T08:26:51.210Z,72.42
2023-03-07T08:31:20.708Z,72.69
2023-03-07T08:35:50.254Z,72.60
2023-03-07T08:40:13.697Z,72.50
2023-03-07T09:11:51.122Z,72.50
2023-03-07T09:16:13.062Z,72.48
2023-03-07T09:20:27.940Z,72.55
2023-03-07T09:37:21.489Z,72.62
2023-03-07T09:41:37.573Z,72.43
2023-03-07T09:45:53.433Z,72.52
2023-03-07T09:50:19.277Z,72.47
2023-03-07T09:58:56.296Z,72.11
2023-03-07T10:03:22.832Z,72.08
2023-03-07T10:07:09.655Z,72.09
2023-03-07T10:10:02.263Z,71.79
2023-03-07T10:13:23.955Z,71.65
2023-03-07T10:16:51.334Z,71.96
2023-03-07T10:20:41.287Z,71.47
2023-03-07T10:23:52.005Z,71.53
2023-03-07T10:27:07.513Z,71.63
2023-03-07T10:30:22.509Z,71.40
2023-03-07T10:33:14.767Z,71.27
2023-03-07T10:37:14.481Z,70.89
2023-03-07T10:41:24.785Z,71.25
2023-03-07T10:44:52.696Z,70.92
2023-03-07T10:48:41.557Z,70.72
2023-03-07T10:52:54.416Z,70.70
2023-03-07T10:56:55.401Z,70.67
2023-03-07T11:01:21.678Z,70.78
2023-03-07T11:05:36.382Z,70.50
2023-03-07T11:08:55.786Z,70.51
2023-03-07T11:12:40.498Z,70.76
2023-03-07T11:15:27.747Z,70.62
2023-03-07T11:18:37.765Z,70.28
2023-03-07T11:21:53.197Z,69.79
2023-03-07T11:25:39.584Z,69.53
2023-03-07T11:29:28.731Z,69.49
2023-03-07T11:33:03.759Z,69.18
2023-03-07T11:36:26.322Z,69.65
2023-03-07T11:39:55.040Z,69.47
2023-03-07T11:44:05.161Z,69.33
2023-03-07T11:47:52.844Z,69.35
2023-03-07T12:43:33.275Z,66.28
2023-03-07T12:47:49.153Z,66.01
2023-03-07T13:27:06.608Z,65.12
2023-03-07T13:31:28.517Z,64.70
2023-03-07T13:35:50.440Z,64.91
2023-03-07T13:40:41.325Z,64.49
2023-03-07T13:45:10.528Z,64.17
2023-03-07T13:49:29.433Z,63.94
2023-03-07T13:53:52.422Z,63.84
2023-03-07T13:58:09.345Z,63.87
2023-03-07T14:02:32.397Z,63.20
2023-03-07T14:06:58.388Z,62.98
2023-03-07T14:10:58.453Z,63.52
2023-03-07T14:31:57.178Z,62.88
2023-03-07T14:36:41.853Z,62.52
2023-03-07T14:41:33.554Z,62.96
2023-03-07T14:45:50.909Z,62.56
2023-03-07T14:50:17.361Z,62.85
2023-03-07T14:54:39.456Z,62.98
2023-03-07T14:59:02.633Z,62.76
2023-03-07T15:03:38.555Z,62.94
2023-03-07T15:08:00.661Z,62.88
2023-03-07T15:12:19.385Z,62.86
2023-03-07T15:38:41.268Z,62.57
2023-03-07T15:43:10.673Z,62.41
2023-03-07T15:47:28.430Z,62.40
2023-03-07T15:51:58.373Z,62.52
2023-03-07T15:56:17.825Z,62.50
2023-03-07T16:00:28.316Z,62.65
2023-03-07T16:25:39.773Z,62.47
2023-03-07T16:30:09.129Z,62.56
2023-03-07T16:34:38.582Z,62.67
2023-03-07T16:39:09.327Z,62.57
2023-03-07T16:43:31.226Z,62.83
2023-03-07T16:47:45.666Z,62.75
2023-03-07T16:52:18.517Z,62.91
2023-03-07T17:10:27.502Z,63.29
2023-03-07T17:14:53.725Z,63.15
2023-03-07T17:19:22.921Z,63.62
2023-03-07T17:41:02.691Z,63.91
2023-03-07T17:45:24.645Z,64.23
2023-03-07T17:49:46.839Z,64.12
2023-03-07T18:20:13.498Z,65.33
2023-03-07T18:24:42.562Z,65.32
2023-03-07T18:29:04.325Z,65.38
2023-03-07T18:33:26.430Z,65.49
2023-03-07T18:37:54.132Z,65.28
2023-03-07T19:03:57.919Z,65.62
2023-03-07T19:31:21.882Z,65.76
2023-03-07T19:35:51.056Z,65.94
2023-03-07T19:40:13.054Z,66.04
2023-03-07T19:44:42.468Z,65.96
2023-03-07T19:49:12.583Z,66.14
2023-03-07T19:53:42.068Z,66.39
2023-03-07T19:58:11.852Z,66.45
2023-03-07T20:15:32.523Z,66.45
2023-03-07T20:20:02.965Z,66.69
2023-03-07T20:24:32.510Z,66.84
2023-03-07T20:28:54.225Z,66.91
2023-03-07T20:33:23.632Z,66.70
2023-03-07T20:37:53.869Z,66.98
2023-03-07T20:50:41.618Z,67.05
2023-03-07T20:55:13.453Z,66.91
2023-03-07T20:59:28.806Z,66.96
2023-03-07T21:25:47.143Z,67.45
2023-03-07T21:30:16.136Z,67.23
2023-03-07T21:57:09.853Z,67.42
2023-03-07T22:01:29.881Z,67.02
2023-03-07T22:10:38.526Z,67.20
2023-03-07T22:14:47.917Z,67.26
2023-03-07T22:19:08.130Z,67.67
2023-03-07T22:23:37.527Z,67.19
2023-03-07T22:44:55.342Z,67.06
2023-03-07T22:49:12.577Z,67.00
2023-03-07T22:53:42.603Z,66.82
2023-03-07T23:15:20.265Z,66.25
2023-03-07T23:19:50.733Z,66.30
2023-03-07T23:24:05.186Z,66.54
2023-03-07T23:28:26.749Z,66.18
2023-03-07T23:32:46.622Z,65.93
2023-03-07T23:51:55.294Z,65.47
2023-03-07T23:56:24.828Z,65.27
